createdAt,value
2022-07-25T00:02:03.597Z,100103.13
2022-07-25T00:05:05.602Z,100102.56
2022-07-25T00:08:07.046Z,100091.78
2022-07-25T00:11:08.470Z,100093.16
2022-07-25T00:14:10.236Z,100085.53
2022-07-25T00:17:11.962Z,100089.53
2022-07-25T00:20:13.457Z,100081.72
2022-07-25T00:23:14.865Z,100082.31
2022-07-25T00:26:16.927Z,100080.13
2022-07-25T00:29:18.333Z,100083.38
2022-07-25T00:32:19.856Z,100080.09
2022-07-25T00:35:21.313Z,100076.34
2022-07-25T00:38:22.729Z,100075.22
2022-07-25T00:41:25.092Z,100076.06
2022-07-25T00:44:29.460Z,100069.28
2022-07-25T00:47:31.288Z,100074.13
2022-07-25T00:50:32.887Z,100065.25
2022-07-25T00:53:35.326Z,100066.50
2022-07-25T00:56:37.734Z,100064.31
2022-07-25T00:59:39.167Z,100053.53
2022-07-25T01:02:41.500Z,100051.53
2022-07-25T01:05:43.026Z,100046.88
2022-07-25T01:08:45.014Z,100035.03
2022-07-25T01:11:47.601Z,100040.75
2022-07-25T01:14:49.057Z,100039.03
2022-07-25T01:17:51.206Z,100038.03
2022-07-25T01:20:53.188Z,100036.75
2022-07-25T01:23:54.883Z,100028.25
2022-07-25T01:26:56.342Z,100023.16
2022-07-25T01:29:57.758Z,100034.25
2022-07-25T01:32:59.233Z,100012.44
2022-07-25T01:36:08.243Z,100023.19
2022-07-25T01:39:09.707Z,100019.06
2022-07-25T01:42:11.121Z,100023.94
2022-07-25T01:45:12.901Z,100023.41
2022-07-25T01:48:14.437Z,100019.78
2022-07-25T01:51:15.964Z,100021.81
2022-07-25T01:54:21.956Z,100018.00
2022-07-25T01:57:25.007Z,100015.91
2022-07-25T02:00:32.354Z,100018.09
2022-07-25T02:03:33.831Z,100016.00
2022-07-25T02:06:35.767Z,100015.88
2022-07-25T02:09:37.228Z,100012.06
2022-07-25T02:12:38.669Z,100011.53
2022-07-25T02:15:40.177Z,100014.81
2022-07-25T02:18:41.619Z,100013.84
2022-07-25T02:21:43.102Z,100014.97
2022-07-25T02:24:44.523Z,100020.22
2022-07-25T02:27:45.941Z,100020.22
2022-07-25T02:30:47.460Z,100016.34
2022-07-25T02:33:48.881Z,100022.31
2022-07-25T02:36:50.377Z,100018.06
2022-07-25T02:39:51.848Z,100010.44
2022-07-25T02:42:53.338Z,100013.72
2022-07-25T02:45:54.846Z,100009.91
2022-07-25T02:48:56.429Z,100010.09
2022-07-25T02:51:57.865Z,100001.44
2022-07-25T02:54:59.314Z,99999.75
2022-07-25T02:58:00.770Z,100001.63
2022-07-25T03:01:02.325Z,100004.47
2022-07-25T03:04:04.431Z,100000.66
2022-07-25T03:07:06.079Z,100002.34
2022-07-25T03:10:11.451Z,100001.19
2022-07-25T03:13:13.149Z,99995.81
2022-07-25T03:16:14.607Z,99989.59
2022-07-25T03:19:16.204Z,99996.66
2022-07-25T03:22:17.636Z,99992.28
2022-07-25T03:25:21.381Z,99987.03
2022-07-25T03:28:24.634Z,99988.88
2022-07-25T03:31:26.192Z,99984.81
2022-07-25T03:34:28.194Z,99982.38
2022-07-25T03:37:29.774Z,99988.09
2022-07-25T03:40:31.668Z,99978.59
2022-07-25T03:43:33.083Z,99979.84
2022-07-25T03:46:34.936Z,99978.16
2022-07-25T03:49:36.710Z,99979.75
2022-07-25T03:52:39.910Z,99975.88
2022-07-25T03:55:41.456Z,99974.38
2022-07-25T03:58:42.882Z,99974.06
2022-07-25T04:01:46.232Z,99984.00
2022-07-25T04:04:47.717Z,99971.97
2022-07-25T04:07:49.122Z,99970.72
2022-07-25T04:10:50.702Z,99981.47
2022-07-25T04:13:52.118Z,99974.00
2022-07-25T04:16:53.551Z,99969.06
2022-07-25T04:19:55.007Z,99975.03
2022-07-25T04:22:56.415Z,99984.13
2022-07-25T04:25:58.097Z,99969.81
2022-07-25T04:29:02.910Z,99975.78
2022-07-25T04:32:05.084Z,99966.97
2022-07-25T04:35:07.286Z,99969.53
2022-07-25T04:38:12.190Z,99972.38
2022-07-25T04:41:13.904Z,99965.56
2022-07-25T04:44:15.418Z,99965.41
2022-07-25T04:47:16.827Z,99965.97
2022-07-25T04:50:23.074Z,99962.28
2022-07-25T04:53:26.536Z,99962.44
2022-07-25T04:56:27.981Z,99961.72
2022-07-25T04:59:29.392Z,99966.81
2022-07-25T05:02:30.894Z,99954.38
2022-07-25T05:05:32.637Z,99957.47
2022-07-25T05:08:34.063Z,99951.06
2022-07-25T05:11:36.250Z,99950.47
2022-07-25T05:14:38.454Z,99958.81
2022-07-25T05:17:39.945Z,99955.41
2022-07-25T05:20:41.400Z,99937.81
2022-07-25T05:23:42.844Z,99951.13
2022-07-25T05:26:44.285Z,99951.97
2022-07-25T05:29:45.694Z,99948.22
2022-07-25T05:32:47.127Z,99937.31
2022-07-25T05:35:49.195Z,99943.88
2022-07-25T05:38:50.650Z,99939.97
2022-07-25T05:41:52.176Z,99939.44
2022-07-25T05:44:53.599Z,99940.88
2022-07-25T05:47:55.010Z,99945.91
2022-07-25T05:50:57.597Z,99948.38
2022-07-25T05:53:59.585Z,99947.94
2022-07-25T05:57:01.677Z,99950.25
2022-07-25T06:00:05.608Z,99951.56
2022-07-25T06:03:07.118Z,99948.22
2022-07-25T06:06:09.483Z,99948.97
2022-07-25T06:09:10.899Z,99938.25
2022-07-25T06:12:13.946Z,99936.47
2022-07-25T06:15:22.266Z,99936.41
2022-07-25T06:18:28.979Z,99936.34
2022-07-25T06:21:30.647Z,99936.97
2022-07-25T06:24:32.109Z,99934.34
2022-07-25T06:27:33.563Z,99929.34
2022-07-25T06:30:35.009Z,99920.47
2022-07-25T06:33:36.498Z,99923.13
2022-07-25T06:36:37.996Z,99922.66
2022-07-25T06:39:42.547Z,99927.91
2022-07-25T06:42:47.613Z,99928.28
2022-07-25T06:45:49.843Z,99928.44
2022-07-25T06:48:51.293Z,99928.31
2022-07-25T06:51:53.700Z,99923.47
2022-07-25T06:54:55.112Z,99930.72
2022-07-25T06:57:56.546Z,99932.41
2022-07-25T07:00:58.495Z,99927.34
2022-07-25T07:04:00.040Z,99917.34
2022-07-25T07:07:01.529Z,99911.94
2022-07-25T07:10:03.129Z,99906.84
2022-07-25T07:13:10.182Z,99899.84
2022-07-25T07:16:12.165Z,99900.50
2022-07-25T07:19:14.569Z,99901.50
2022-07-25T07:22:15.998Z,99913.03
2022-07-25T07:25:19.624Z,99911.66
2022-07-25T07:28:21.281Z,99913.84
2022-07-25T07:31:22.871Z,99910.28
2022-07-25T07:34:24.344Z,99906.50
2022-07-25T07:37:25.865Z,99910.84
2022-07-25T07:40:27.516Z,99915.63
2022-07-25T07:43:31.652Z,99907.50
2022-07-25T07:46:33.254Z,99910.13
2022-07-25T07:49:37.105Z,99920.41
2022-07-25T07:52:38.788Z,99910.16
2022-07-25T07:55:48.065Z,99909.56
2022-07-25T07:58:50.428Z,99911.03
2022-07-25T08:01:51.994Z,99912.38
2022-07-25T08:04:53.512Z,99904.56
2022-07-25T08:07:55.537Z,99910.41
2022-07-25T08:10:59.176Z,99903.84
2022-07-25T08:14:01.656Z,99902.41
2022-07-25T08:17:03.164Z,99909.69
2022-07-25T08:20:27.937Z,99903.31
2022-07-25T08:23:31.723Z,99910.00
2022-07-25T08:26:33.827Z,99914.63
2022-07-25T08:29:35.281Z,99918.53
2022-07-25T08:32:50.453Z,99913.13
2022-07-25T08:35:54.472Z,99913.22
2022-07-25T08:38:55.913Z,99915.06
2022-07-25T08:41:57.674Z,99904.56
2022-07-25T08:45:03.041Z,99901.56
2022-07-25T08:48:04.970Z,99901.09
2022-07-25T08:51:07.119Z,99905.88
2022-07-25T08:54:09.626Z,99903.56
2022-07-25T08:57:11.258Z,99905.13
2022-07-25T09:00:16.763Z,99894.25
2022-07-25T09:03:18.290Z,99901.63
2022-07-25T09:06:22.429Z,99886.34
2022-07-25T09:09:35.110Z,99885.03
2022-07-25T09:12:36.597Z,99880.72
2022-07-25T09:15:46.018Z,99876.44
2022-07-25T09:18:48.402Z,99882.41
2022-07-25T09:22:01.393Z,99884.47
2022-07-25T09:25:02.847Z,99875.06
2022-07-25T09:28:12.157Z,99869.69
2022-07-25T09:31:15.018Z,99875.97
2022-07-25T09:34:28.751Z,99871.41
2022-07-25T09:37:30.189Z,99859.34
2022-07-25T09:40:31.682Z,99860.22
2022-07-25T09:43:41.470Z,99852.34
2022-07-25T09:46:43.502Z,99844.59
2022-07-25T09:49:47.322Z,99838.94
2022-07-25T09:52:51.122Z,99842.72
2022-07-25T09:55:54.998Z,99835.56
2022-07-25T09:58:58.052Z,99833.94
2022-07-25T10:02:26.802Z,99820.66
2022-07-25T10:05:45.292Z,99822.16
2022-07-25T10:08:48.772Z,99818.13
2022-07-25T10:12:07.525Z,99812.41
2022-07-25T10:15:11.148Z,99814.09
2022-07-25T10:18:14.524Z,99811.94
2022-07-25T10:21:26.735Z,99809.16
2022-07-25T10:24:38.062Z,99804.94
2022-07-25T10:27:52.835Z,99810.25
2022-07-25T10:30:58.623Z,99815.75
2022-07-25T10:34:04.042Z,99806.53
2022-07-25T10:37:18.268Z,99803.16
2022-07-25T10:40:34.167Z,99803.16
2022-07-25T10:43:40.230Z,99801.38
2022-07-25T10:46:45.627Z,99800.59
2022-07-25T10:50:06.831Z,99791.34
2022-07-25T10:53:10.842Z,99801.00
2022-07-25T10:56:22.491Z,99794.28
2022-07-25T10:59:37.125Z,99793.16
2022-07-25T11:02:38.992Z,99786.38
2022-07-25T11:05:47.641Z,99784.25
2022-07-25T11:08:49.676Z,99790.34
2022-07-25T11:11:53.574Z,99787.59
2022-07-25T11:15:03.814Z,99790.75
2022-07-25T11:18:05.290Z,99787.25
2022-07-25T11:21:08.462Z,99786.63
2022-07-25T11:24:09.862Z,99787.88
2022-07-25T11:27:26.227Z,99783.25
2022-07-25T11:30:31.123Z,99781.31
2022-07-25T11:33:32.889Z,99777.38
2022-07-25T11:36:34.564Z,99771.56
2022-07-25T11:39:38.363Z,99771.97
2022-07-25T11:43:03.317Z,99781.28
2022-07-25T11:46:06.964Z,99781.50
2022-07-25T11:49:09.099Z,99770.13
2022-07-25T11:52:21.992Z,99774.97
2022-07-25T11:55:29.409Z,99775.16
2022-07-25T11:58:30.858Z,99777.91
2022-07-25T12:01:40.648Z,99773.47
2022-07-25T12:04:52.694Z,99769.03
2022-07-25T12:07:54.934Z,99763.84
2022-07-25T12:10:56.435Z,99752.72
2022-07-25T12:14:04.394Z,99752.13
2022-07-25T12:17:05.935Z,99753.28
2022-07-25T12:20:24.221Z,99754.84
2022-07-25T12:23:25.672Z,99751.78
2022-07-25T12:26:27.207Z,99749.19
2022-07-25T12:29:28.700Z,99746.38
2022-07-25T12:32:30.568Z,99739.31
2022-07-25T12:35:32.591Z,99739.00
2022-07-25T12:38:34.095Z,99731.22
2022-07-25T12:41:35.587Z,99726.28
2022-07-25T12:44:36.993Z,99724.25
2022-07-25T12:47:38.432Z,99722.78
2022-07-25T12:50:40.069Z,99715.34
2022-07-25T12:53:42.656Z,99716.69
2022-07-25T12:56:44.219Z,99704.06
2022-07-25T12:59:45.619Z,99703.25
2022-07-25T13:02:48.232Z,99715.06
2022-07-25T13:05:49.717Z,99711.03
2022-07-25T13:08:51.272Z,99707.78
2022-07-25T13:11:53.917Z,99700.75
2022-07-25T13:14:55.369Z,99712.25
2022-07-25T13:17:57.064Z,99713.16
2022-07-25T13:21:00.501Z,99712.25
2022-07-25T13:24:02.283Z,99707.78
2022-07-25T13:27:04.842Z,99712.00
2022-07-25T13:30:07.473Z,99709.03
2022-07-25T13:33:10.530Z,99725.47
2022-07-25T13:36:12.532Z,99721.53
2022-07-25T13:39:14.285Z,99713.38
2022-07-25T13:42:15.850Z,99715.59
2022-07-25T13:45:17.291Z,99713.09
2022-07-25T13:48:29.477Z,99709.78
2022-07-25T13:51:31.926Z,99701.50
2022-07-25T13:54:33.582Z,99717.03
2022-07-25T13:57:35.274Z,99717.25
2022-07-25T14:00:36.690Z,99722.06
2022-07-25T14:03:38.522Z,99700.91
2022-07-25T14:06:39.935Z,99704.31
2022-07-25T14:09:41.368Z,99713.41
2022-07-25T14:12:42.772Z,99716.19
2022-07-25T14:15:44.897Z,99695.00
2022-07-25T14:18:46.469Z,99692.91
2022-07-25T14:21:47.905Z,99699.00
2022-07-25T14:24:49.352Z,99689.56
2022-07-25T14:27:50.844Z,99689.06
2022-07-25T14:30:52.409Z,99686.22
2022-07-25T14:33:53.995Z,99686.69
2022-07-25T14:36:55.556Z,99696.16
2022-07-25T14:40:01.343Z,99703.41
2022-07-25T14:43:03.200Z,99698.72
2022-07-25T14:46:05.525Z,99695.81
2022-07-25T14:49:07.450Z,99693.38
2022-07-25T14:52:10.138Z,99694.09
2022-07-25T14:55:11.555Z,99691.53
2022-07-25T14:58:13.830Z,99699.00
2022-07-25T15:01:18.518Z,99697.38
2022-07-25T15:04:21.967Z,99689.97
2022-07-25T15:07:23.550Z,99703.53
2022-07-25T15:10:24.948Z,99700.19
2022-07-25T15:13:31.428Z,99693.88
2022-07-25T15:16:33.655Z,99697.84
2022-07-25T15:19:35.148Z,99690.69
2022-07-25T15:22:36.561Z,99700.34
2022-07-25T15:29:00.080Z,99690.97
2022-07-25T15:32:03.523Z,99695.84
2022-07-25T15:35:05.706Z,99685.66
2022-07-25T15:38:07.295Z,99702.72
2022-07-25T15:41:10.611Z,99691.56
2022-07-25T15:44:12.013Z,99689.53
2022-07-25T15:47:13.541Z,99687.63
2022-07-25T15:50:15.074Z,99681.03
2022-07-25T15:53:17.028Z,99685.09
2022-07-25T15:56:18.626Z,99672.94
2022-07-25T15:59:20.033Z,99680.97
2022-07-25T16:02:21.451Z,99677.41
2022-07-25T16:05:23.153Z,99677.25
2022-07-25T16:08:24.784Z,99681.91
2022-07-25T16:11:26.583Z,99680.09
2022-07-25T16:14:28.091Z,99679.53
2022-07-25T16:17:31.170Z,99674.69
2022-07-25T16:20:33.809Z,99683.25
2022-07-25T16:23:41.558Z,99684.81
2022-07-25T16:26:47.803Z,99681.22
2022-07-25T16:29:49.235Z,99683.53
2022-07-25T16:32:50.826Z,99677.94
2022-07-25T16:35:52.306Z,99693.03
2022-07-25T16:38:53.734Z,99685.34
2022-07-25T16:41:55.706Z,99690.19
2022-07-25T16:44:57.178Z,99702.28
2022-07-25T16:47:58.585Z,99693.81
2022-07-25T16:51:00.466Z,99709.56
2022-07-25T16:54:02.050Z,99709.97
2022-07-25T16:57:04.070Z,99718.06
2022-07-25T17:00:08.078Z,99732.09
2022-07-25T17:03:09.590Z,99736.44
2022-07-25T17:06:11.219Z,99738.97
2022-07-25T17:09:12.815Z,99737.88
2022-07-25T17:12:14.502Z,99751.91
2022-07-25T17:15:16.012Z,99753.38
2022-07-25T17:18:17.469Z,99760.59
2022-07-25T17:21:19.066Z,99763.72
2022-07-25T17:24:20.564Z,99768.56
2022-07-25T17:27:22.117Z,99778.56
2022-07-25T17:30:23.849Z,99792.50
2022-07-25T17:33:25.279Z,99788.06
2022-07-25T17:36:26.701Z,99792.97
2022-07-25T17:39:30.070Z,99801.19
2022-07-25T17:42:31.605Z,99800.53
2022-07-25T17:45:33.022Z,99806.94
2022-07-25T17:48:34.827Z,99813.50
2022-07-25T17:51:36.386Z,99810.88
2022-07-25T17:54:39.935Z,99818.81
2022-07-25T17:57:42.468Z,99829.69
2022-07-25T18:00:43.967Z,99829.53
2022-07-25T18:03:47.460Z,99834.78
2022-07-25T18:06:50.214Z,99833.56
2022-07-25T18:09:51.809Z,99840.41
2022-07-25T18:12:53.228Z,99853.25
2022-07-25T18:15:54.872Z,99848.44
2022-07-25T18:18:56.567Z,99853.38
2022-07-25T18:21:58.110Z,99858.03
2022-07-25T18:24:59.505Z,99869.81
2022-07-25T18:28:01.430Z,99884.53
2022-07-25T18:31:03.062Z,99880.59
2022-07-25T18:34:04.782Z,99873.56
2022-07-25T18:37:06.451Z,99868.28
2022-07-25T18:40:08.958Z,99875.41
2022-07-25T18:43:11.637Z,99880.09
2022-07-25T18:46:13.289Z,99883.72
2022-07-25T18:49:16.174Z,99893.31
2022-07-25T18:52:18.042Z,99887.03
2022-07-25T18:55:20.105Z,99887.47
2022-07-25T18:58:21.548Z,99895.97
2022-07-25T19:01:23.528Z,99898.00
2022-07-25T19:04:25.906Z,99893.69
2022-07-25T19:07:28.688Z,99899.03
2022-07-25T19:10:30.219Z,99920.34
2022-07-25T19:13:50.854Z,99923.47
2022-07-25T19:16:54.182Z,99930.88
2022-07-25T19:19:55.675Z,99934.34
2022-07-25T19:22:57.166Z,99929.63
2022-07-25T19:25:58.729Z,99943.50
2022-07-25T19:29:00.448Z,99951.41
2022-07-25T19:32:02.041Z,99963.88
2022-07-25T19:35:05.499Z,99962.19
2022-07-25T19:38:07.662Z,99971.91
2022-07-25T19:41:10.467Z,99976.28
2022-07-25T19:44:11.973Z,99971.06
2022-07-25T19:47:13.573Z,99976.53
2022-07-25T19:50:15.100Z,99970.59
2022-07-25T19:53:16.614Z,99976.34
2022-07-25T19:56:18.189Z,99983.31
2022-07-25T19:59:19.781Z,99978.25
2022-07-25T20:02:21.477Z,99978.94
2022-07-25T20:05:22.994Z,99985.06
2022-07-25T20:08:24.431Z,99995.91
2022-07-25T20:11:26.027Z,99994.50
2022-07-25T20:14:28.929Z,100000.63
2022-07-25T20:17:30.342Z,100009.91
2022-07-25T20:20:31.777Z,100025.47
2022-07-25T20:23:33.310Z,100033.59
2022-07-25T20:26:34.877Z,100038.66
2022-07-25T20:29:36.466Z,100041.34
2022-07-25T20:32:38.990Z,100056.22
2022-07-25T20:35:40.417Z,100055.88
2022-07-25T20:38:41.905Z,100070.09
2022-07-25T20:41:43.434Z,100076.19
2022-07-25T20:44:46.293Z,100080.50
2022-07-25T20:47:47.821Z,100083.56
2022-07-25T20:50:49.653Z,100086.66
2022-07-25T20:53:53.187Z,100082.50
2022-07-25T20:56:55.249Z,100094.53
2022-07-25T20:59:56.773Z,100097.69
2022-07-25T21:02:59.735Z,100101.69
2022-07-25T21:06:01.453Z,100108.94
2022-07-25T21:09:03.326Z,100108.75
2022-07-25T21:12:04.936Z,100113.06
2022-07-25T21:15:07.744Z,100123.53
2022-07-25T21:18:09.705Z,100121.47
2022-07-25T21:21:12.407Z,100116.91
2022-07-25T21:24:14.056Z,100124.19
2022-07-25T21:27:16.878Z,100123.97
2022-07-25T21:30:18.528Z,100125.44
2022-07-25T21:33:20.014Z,100127.78
2022-07-25T21:36:21.463Z,100128.13
2022-07-25T21:39:22.884Z,100129.00
2022-07-25T21:42:24.434Z,100135.41
2022-07-25T21:45:26.896Z,100133.19
2022-07-25T21:48:51.728Z,100142.84
2022-07-25T21:51:55.761Z,100136.22
2022-07-25T21:55:01.333Z,100130.50
2022-07-25T21:58:03.596Z,100128.13
2022-07-25T22:01:05.091Z,100125.66
2022-07-25T22:04:06.785Z,100132.53
2022-07-25T22:07:08.372Z,100138.00
2022-07-25T22:10:11.966Z,100145.47
2022-07-25T22:13:13.865Z,100149.09
2022-07-25T22:16:16.391Z,100150.41
2022-07-25T22:19:21.963Z,100151.16
2022-07-25T22:22:23.838Z,100160.56
2022-07-25T22:25:25.653Z,100169.06
2022-07-25T22:28:27.078Z,100165.34
2022-07-25T22:31:29.027Z,100159.22
2022-07-25T22:34:31.045Z,100159.50
2022-07-25T22:37:32.817Z,100157.03
2022-07-25T22:40:34.561Z,100160.53
2022-07-25T22:43:48.696Z,100165.19
2022-07-25T22:46:57.626Z,100161.88
2022-07-25T22:49:59.214Z,100162.63
2022-07-25T22:53:00.642Z,100156.75
2022-07-25T22:56:02.083Z,100158.75
2022-07-25T22:59:03.624Z,100153.34
2022-07-25T23:02:05.057Z,100142.25
2022-07-25T23:05:08.294Z,100148.38
2022-07-25T23:08:09.710Z,100157.00
2022-07-25T23:11:11.209Z,100146.94
2022-07-25T23:14:12.665Z,100171.59
2022-07-25T23:17:20.137Z,100175.59
2022-07-25T23:20:21.775Z,100201.78
2022-07-25T23:23:23.315Z,100213.22
2022-07-25T23:26:24.820Z,100204.97
2022-07-25T23:29:26.297Z,100196.34
2022-07-25T23:32:27.726Z,100201.91
2022-07-25T23:35:29.216Z,100184.69
2022-07-25T23:38:30.634Z,100187.84
2022-07-25T23:41:32.094Z,100179.19
2022-07-25T23:44:33.629Z,100187.16
2022-07-25T23:47:39.541Z,100173.56
2022-07-25T23:50:42.173Z,100170.97
2022-07-25T23:53:43.641Z,100167.16
2022-07-25T23:56:45.106Z,100173.41
2022-07-25T23:59:46.552Z,100182.66
